Terminal Aerodrome Forecast
Issued by NWS Central Illinois

Home | Current Version | Previous Version | Text Only | Print | Product List | Glossary On
Versions: 1 2 3 4 5 6 7 8 9 10 11 12 13 14 15 16
000
FTUS43 KILX 022331
TAFPIA
TAF
KPIA 022331Z 0300/0324 31006KT P6SM OVC035
     FM030100 31006KT P6SM OVC030
     FM030900 32005KT P6SM BKN035
     FM032100 VRB05KT P6SM BKN150=

USA.gov is the U.S. government's official web portal to all federal, state and local government web resources and services.